Mega Star 1 — TCMF3 — position and weather

sailwx.info

Track history (hours):
 
Tides and Currents Weather Stations Pressure Air Temp Water Temp Dewpoint Dewpoint Depression Visibility Wind Speed Wind Dir Waves Ship Positions

Mega Star 1

Last reported at 2018-May-15 14:19 UTC. Time now 2018-Jul-23 15:39 UTC.
Position N 36°36' E 030°34'.
Warning: this ship's position is months out of date.

Length 28 m.

Type: Passenger vessel. MMSI: 271042635.

Date/timePositionNaut miles runAvg speedWind from/ knotsBaromVisibWave heightAir tempDewpointWater temp
2018-May-15 14:19N 36°36' E 030°34'0 0.0
2018-May-15 13:52N 36°36' E 030°34'0 0.0
2018-May-15 13:25N 36°36' E 030°34'0 0.5
2018-May-15 13:00N 36°36' E 030°34'2 3.5
2018-May-15 12:30N 36°35' E 030°35'3 5.6
2018-May-15 12:00N 36°32' E 030°34'0 0.6
2018-May-15 11:22N 36°32' E 030°34'0 0.0
2018-May-15 10:43N 36°32' E 030°34'0 0.0
2018-May-15 10:28N 36°32' E 030°34'0 0.1
2018-May-15 08:06N 36°32' E 030°34'1 6.2
2018-May-15 07:53N 36°33' E 030°34'2 6.0
2018-May-15 07:28N 36°35' E 030°36'1 2.4
2018-May-15 06:57N 36°36' E 030°34'0 0.0
2018-May-15 06:27N 36°36' E 030°34'0 0.0
2018-May-15 06:00N 36°36' E 030°34'0 0.0
2018-May-15 05:30N 36°36' E 030°34'0 0.0
2018-May-15 05:00N 36°36' E 030°34'0 0.0
2018-May-15 04:24N 36°36' E 030°34'0 0.0
2018-May-15 03:57N 36°36' E 030°34'0 0.0
2018-May-14 17:21N 36°36' E 030°34'0 0.0
2018-May-14 14:45N 36°36' E 030°34'0 0.0
2018-May-14 13:06N 36°36' E 030°34'0 1.2
2018-May-14 13:00N 36°36' E 030°34'2 4.5
2018-May-14 12:30N 36°34' E 030°35'2 3.6
2018-May-14 12:00N 36°32' E 030°34'0 0.3
2018-May-14 10:51N 36°32' E 030°34'4 1.1
2018-May-14 07:16N 36°36' E 030°35'1 0.9
2018-May-14 06:17N 36°36' E 030°34'0 0.0
2018-May-14 05:59N 36°36' E 030°34'0 0.0
2018-May-14 05:29N 36°36' E 030°34'0 0.0
2018-May-14 04:59N 36°36' E 030°34'0 0.0
2018-May-14 04:23N 36°36' E 030°34'0 0.0
2018-May-14 03:56N 36°36' E 030°34'0 0.0
2018-May-14 03:29N 36°36' E 030°34'0 0.0
2018-May-14 02:59N 36°36' E 030°34'0 0.0
2018-May-14 02:29N 36°36' E 030°34'0 0.0
2018-May-14 01:59N 36°36' E 030°34'0 0.0
2018-May-14 01:29N 36°36' E 030°34'0 0.0
2018-May-14 00:59N 36°36' E 030°34'0 0.0
2018-May-14 00:29N 36°36' E 030°34'0 0.0
2018-May-13 23:59N 36°36' E 030°34'0 0.0
2018-May-13 23:29N 36°36' E 030°34'0 0.0
2018-May-13 22:59N 36°36' E 030°34'0 0.0
2018-May-13 22:29N 36°36' E 030°34'0 0.0
2018-May-13 21:59N 36°36' E 030°34'0 0.0
2018-May-13 21:29N 36°36' E 030°34'0 0.0
2018-May-13 20:50N 36°36' E 030°34'0 0.0
2018-May-13 20:29N 36°36' E 030°34'0 0.0
2018-May-13 19:56N 36°36' E 030°34'0 0.0
2018-May-13 19:29N 36°36' E 030°34'0 0.0
2018-May-13 18:53N 36°36' E 030°34'0 0.0
2018-May-13 18:26N 36°36' E 030°34'0 0.0
2018-May-13 17:59N 36°36' E 030°34'0 0.0
2018-May-13 17:29N 36°36' E 030°34'0 0.0
2018-May-13 16:59N 36°36' E 030°34'0 0.0
2018-May-13 16:29N 36°36' E 030°34'0 0.0
2018-May-13 15:59N 36°36' E 030°34'0 0.0
2018-May-13 15:29N 36°36' E 030°34'0 0.0
2018-May-13 14:47N 36°36' E 030°34'0 0.0
2018-May-13 14:29N 36°36' E 030°34'0 0.0
2018-May-13 13:59N 36°36' E 030°34'0 0.0
2018-May-13 13:29N 36°36' E 030°34'0 0.2
2018-May-13 13:00N 36°36' E 030°34'2 4.1
2018-May-13 12:30N 36°34' E 030°35'2 4.2
2018-May-13 11:55N 36°32' E 030°34'0 0.0
2018-May-13 11:25N 36°32' E 030°34'0 0.0
2018-May-13 10:50N 36°32' E 030°34'1 2.2
2018-May-13 10:30N 36°31' E 030°34'1 0.2
2018-May-13 08:01N 36°32' E 030°34'0 7.7
2018-May-13 08:00N 36°32' E 030°34'4 6.8
2018-May-13 07:25N 36°36' E 030°36'1 2.3
2018-May-13 06:57N 36°36' E 030°34'0 0.0
2018-May-13 06:27N 36°36' E 030°34'0 0.0
2018-May-13 05:51N 36°36' E 030°34'0 0.0
2018-May-13 05:30N 36°36' E 030°34'0 0.0
2018-May-13 04:51N 36°36' E 030°34'0 0.0
2018-May-13 04:27N 36°36' E 030°34'0 0.0
2018-May-13 03:57N 36°36' E 030°34'0 0.0
2018-May-13 03:27N 36°36' E 030°34'0 0.0
2018-May-13 02:57N 36°36' E 030°34'0 0.0
2018-May-13 02:27N 36°36' E 030°34'0 0.0
2018-May-13 01:57N 36°36' E 030°34'0 0.0
2018-May-13 01:27N 36°36' E 030°34'0 0.0
2018-May-13 00:57N 36°36' E 030°34'0 0.0
2018-May-13 00:27N 36°36' E 030°34'0 0.0
2018-May-13 00:00N 36°36' E 030°34'0 0.0
2018-May-12 23:27N 36°36' E 030°34'0 0.0
2018-May-12 22:54N 36°36' E 030°34'0 0.0
2018-May-12 22:09N 36°36' E 030°34'0 0.0
2018-May-12 21:51N 36°36' E 030°34'0 0.0
2018-May-12 21:27N 36°36' E 030°34'0 0.0
2018-May-12 20:33N 36°36' E 030°34'0 0.0
2018-May-12 20:27N 36°36' E 030°34'0 0.0
2018-May-12 19:57N 36°36' E 030°34'2 0.3
2018-May-12 12:27N 36°34' E 030°35'2 0.4
2018-May-12 06:23N 36°36' E 030°34'0 0.0
2018-May-12 05:59N 36°36' E 030°34'0 0.0
2018-May-12 05:29N 36°36' E 030°34'0 0.0
2018-May-12 04:59N 36°36' E 030°34'0 0.0
2018-May-12 04:29N 36°36' E 030°34'0 0.0
2018-May-12 03:59N 36°36' E 030°34'0 0.0
2018-May-12 03:29N 36°36' E 030°34'0 0.0
2018-May-12 02:59N 36°36' E 030°34'0 0.0
2018-May-12 02:23N 36°36' E 030°34'0 0.0
2018-May-12 01:59N 36°36' E 030°34'0 0.0
2018-May-12 01:29N 36°36' E 030°34'0 0.0
2018-May-12 00:59N 36°36' E 030°34'0 0.0
2018-May-12 00:26N 36°36' E 030°34'0 0.0
2018-May-11 23:59N 36°36' E 030°34'0 0.0
2018-May-11 23:26N 36°36' E 030°34'0 0.0
2018-May-11 22:59N 36°36' E 030°34'0 0.0
2018-May-11 22:29N 36°36' E 030°34'0 0.0
2018-May-11 21:59N 36°36' E 030°34'0 0.0
2018-May-11 21:29N 36°36' E 030°34'0 0.0
2018-May-11 20:59N 36°36' E 030°34'0 0.0
2018-May-11 20:23N 36°36' E 030°34'0 0.0
2018-May-11 19:59N 36°36' E 030°34'0 0.0
2018-May-11 19:29N 36°36' E 030°34'0 0.0
2018-May-11 18:59N 36°36' E 030°34'0 0.0
2018-May-11 18:29N 36°36' E 030°34'0 0.0
2018-May-11 17:59N 36°36' E 030°34'0 0.0
2018-May-11 17:29N 36°36' E 030°34'0 0.0
2018-May-11 16:59N 36°36' E 030°34'0 0.0
2018-May-11 16:29N 36°36' E 030°34'0 0.0
2018-May-11 15:59N 36°36' E 030°34'0 0.0
2018-May-11 15:29N 36°36' E 030°34'0 0.0
2018-May-11 14:59N 36°36' E 030°34'0 0.0
2018-May-11 14:29N 36°36' E 030°34'0 0.0
2018-May-11 13:59N 36°36' E 030°34'0 0.0
2018-May-11 13:29N 36°36' E 030°34'1 2.1
2018-May-11 12:59N 36°36' E 030°36'2 4.6
2018-May-11 12:30N 36°34' E 030°35'2 1.5
2018-May-11 11:21N 36°32' E 030°34'0 0.0
2018-May-11 11:00N 36°32' E 030°34'0 0.1
2018-May-11 08:06N 36°32' E 030°34'1 7.2
2018-May-11 07:59N 36°33' E 030°34'3 6.7
2018-May-11 07:31N 36°36' E 030°36'1 2.0
2018-May-11 06:59N 36°36' E 030°34'0 0.0
2018-May-11 06:29N 36°36' E 030°34'0 0.0
2018-May-11 05:53N 36°36' E 030°34'0 0.0
2018-May-11 05:29N 36°36' E 030°34'0 0.0
2018-May-11 04:59N 36°36' E 030°34'0 0.0
2018-May-11 04:29N 36°36' E 030°34'  
Track history (hours):
 
Tides and Currents Weather Stations Pressure Air Temp Water Temp Dewpoint Dewpoint Depression Visibility Wind Speed Wind Dir Waves Ship Positions

Mega Star 1

Last reported at 2018-May-15 14:19 UTC. Time now 2018-Jul-23 15:39 UTC.
Position N 36°36' E 030°34'.
Warning: this ship's position is months out of date.

Length 28 m.

Type: Passenger vessel. MMSI: 271042635.

Date/timePositionNaut miles runAvg speedWind from/ knotsBaromVisibWave heightAir tempDewpointWater temp
2018-May-15 14:19N 36°36' E 030°34'0 0.0
2018-May-15 13:52N 36°36' E 030°34'0 0.0
2018-May-15 13:25N 36°36' E 030°34'0 0.5
2018-May-15 13:00N 36°36' E 030°34'2 3.5
2018-May-15 12:30N 36°35' E 030°35'3 5.6
2018-May-15 12:00N 36°32' E 030°34'0 0.6
2018-May-15 11:22N 36°32' E 030°34'0 0.0
2018-May-15 10:43N 36°32' E 030°34'0 0.0
2018-May-15 10:28N 36°32' E 030°34'0 0.1
2018-May-15 08:06N 36°32' E 030°34'1 6.2
2018-May-15 07:53N 36°33' E 030°34'2 6.0
2018-May-15 07:28N 36°35' E 030°36'1 2.4
2018-May-15 06:57N 36°36' E 030°34'0 0.0
2018-May-15 06:27N 36°36' E 030°34'0 0.0
2018-May-15 06:00N 36°36' E 030°34'0 0.0
2018-May-15 05:30N 36°36' E 030°34'0 0.0
2018-May-15 05:00N 36°36' E 030°34'0 0.0
2018-May-15 04:24N 36°36' E 030°34'0 0.0
2018-May-15 03:57N 36°36' E 030°34'0 0.0
2018-May-14 17:21N 36°36' E 030°34'0 0.0
2018-May-14 14:45N 36°36' E 030°34'0 0.0
2018-May-14 13:06N 36°36' E 030°34'0 1.2
2018-May-14 13:00N 36°36' E 030°34'2 4.5
2018-May-14 12:30N 36°34' E 030°35'2 3.6
2018-May-14 12:00N 36°32' E 030°34'0 0.3
2018-May-14 10:51N 36°32' E 030°34'4 1.1
2018-May-14 07:16N 36°36' E 030°35'1 0.9
2018-May-14 06:17N 36°36' E 030°34'0 0.0
2018-May-14 05:59N 36°36' E 030°34'0 0.0
2018-May-14 05:29N 36°36' E 030°34'0 0.0
2018-May-14 04:59N 36°36' E 030°34'0 0.0
2018-May-14 04:23N 36°36' E 030°34'0 0.0
2018-May-14 03:56N 36°36' E 030°34'0 0.0
2018-May-14 03:29N 36°36' E 030°34'0 0.0
2018-May-14 02:59N 36°36' E 030°34'0 0.0
2018-May-14 02:29N 36°36' E 030°34'0 0.0
2018-May-14 01:59N 36°36' E 030°34'0 0.0
2018-May-14 01:29N 36°36' E 030°34'0 0.0
2018-May-14 00:59N 36°36' E 030°34'0 0.0
2018-May-14 00:29N 36°36' E 030°34'0 0.0
2018-May-13 23:59N 36°36' E 030°34'0 0.0
2018-May-13 23:29N 36°36' E 030°34'0 0.0
2018-May-13 22:59N 36°36' E 030°34'0 0.0
2018-May-13 22:29N 36°36' E 030°34'0 0.0
2018-May-13 21:59N 36°36' E 030°34'0 0.0
2018-May-13 21:29N 36°36' E 030°34'0 0.0
2018-May-13 20:50N 36°36' E 030°34'0 0.0
2018-May-13 20:29N 36°36' E 030°34'0 0.0
2018-May-13 19:56N 36°36' E 030°34'0 0.0
2018-May-13 19:29N 36°36' E 030°34'0 0.0
2018-May-13 18:53N 36°36' E 030°34'0 0.0
2018-May-13 18:26N 36°36' E 030°34'0 0.0
2018-May-13 17:59N 36°36' E 030°34'0 0.0
2018-May-13 17:29N 36°36' E 030°34'0 0.0
2018-May-13 16:59N 36°36' E 030°34'0 0.0
2018-May-13 16:29N 36°36' E 030°34'0 0.0
2018-May-13 15:59N 36°36' E 030°34'0 0.0
2018-May-13 15:29N 36°36' E 030°34'0 0.0
2018-May-13 14:47N 36°36' E 030°34'0 0.0
2018-May-13 14:29N 36°36' E 030°34'0 0.0
2018-May-13 13:59N 36°36' E 030°34'0 0.0
2018-May-13 13:29N 36°36' E 030°34'0 0.2
2018-May-13 13:00N 36°36' E 030°34'2 4.1
2018-May-13 12:30N 36°34' E 030°35'2 4.2
2018-May-13 11:55N 36°32' E 030°34'0 0.0
2018-May-13 11:25N 36°32' E 030°34'0 0.0
2018-May-13 10:50N 36°32' E 030°34'1 2.2
2018-May-13 10:30N 36°31' E 030°34'1 0.2
2018-May-13 08:01N 36°32' E 030°34'0 7.7
2018-May-13 08:00N 36°32' E 030°34'4 6.8
2018-May-13 07:25N 36°36' E 030°36'1 2.3
2018-May-13 06:57N 36°36' E 030°34'0 0.0
2018-May-13 06:27N 36°36' E 030°34'0 0.0
2018-May-13 05:51N 36°36' E 030°34'0 0.0
2018-May-13 05:30N 36°36' E 030°34'0 0.0
2018-May-13 04:51N 36°36' E 030°34'0 0.0
2018-May-13 04:27N 36°36' E 030°34'0 0.0
2018-May-13 03:57N 36°36' E 030°34'0 0.0
2018-May-13 03:27N 36°36' E 030°34'0 0.0
2018-May-13 02:57N 36°36' E 030°34'0 0.0
2018-May-13 02:27N 36°36' E 030°34'0 0.0
2018-May-13 01:57N 36°36' E 030°34'0 0.0
2018-May-13 01:27N 36°36' E 030°34'0 0.0
2018-May-13 00:57N 36°36' E 030°34'0 0.0
2018-May-13 00:27N 36°36' E 030°34'0 0.0
2018-May-13 00:00N 36°36' E 030°34'0 0.0
2018-May-12 23:27N 36°36' E 030°34'0 0.0
2018-May-12 22:54N 36°36' E 030°34'0 0.0
2018-May-12 22:09N 36°36' E 030°34'0 0.0
2018-May-12 21:51N 36°36' E 030°34'0 0.0
2018-May-12 21:27N 36°36' E 030°34'0 0.0
2018-May-12 20:33N 36°36' E 030°34'0 0.0
2018-May-12 20:27N 36°36' E 030°34'0 0.0
2018-May-12 19:57N 36°36' E 030°34'2 0.3
2018-May-12 12:27N 36°34' E 030°35'2 0.4
2018-May-12 06:23N 36°36' E 030°34'0 0.0
2018-May-12 05:59N 36°36' E 030°34'0 0.0
2018-May-12 05:29N 36°36' E 030°34'0 0.0
2018-May-12 04:59N 36°36' E 030°34'0 0.0
2018-May-12 04:29N 36°36' E 030°34'0 0.0
2018-May-12 03:59N 36°36' E 030°34'0 0.0
2018-May-12 03:29N 36°36' E 030°34'0 0.0
2018-May-12 02:59N 36°36' E 030°34'0 0.0
2018-May-12 02:23N 36°36' E 030°34'0 0.0
2018-May-12 01:59N 36°36' E 030°34'0 0.0
2018-May-12 01:29N 36°36' E 030°34'0 0.0
2018-May-12 00:59N 36°36' E 030°34'0 0.0
2018-May-12 00:26N 36°36' E 030°34'0 0.0
2018-May-11 23:59N 36°36' E 030°34'0 0.0
2018-May-11 23:26N 36°36' E 030°34'0 0.0
2018-May-11 22:59N 36°36' E 030°34'0 0.0
2018-May-11 22:29N 36°36' E 030°34'0 0.0
2018-May-11 21:59N 36°36' E 030°34'0 0.0
2018-May-11 21:29N 36°36' E 030°34'0 0.0
2018-May-11 20:59N 36°36' E 030°34'0 0.0
2018-May-11 20:23N 36°36' E 030°34'0 0.0
2018-May-11 19:59N 36°36' E 030°34'0 0.0
2018-May-11 19:29N 36°36' E 030°34'0 0.0
2018-May-11 18:59N 36°36' E 030°34'0 0.0
2018-May-11 18:29N 36°36' E 030°34'0 0.0
2018-May-11 17:59N 36°36' E 030°34'0 0.0
2018-May-11 17:29N 36°36' E 030°34'0 0.0
2018-May-11 16:59N 36°36' E 030°34'0 0.0
2018-May-11 16:29N 36°36' E 030°34'0 0.0
2018-May-11 15:59N 36°36' E 030°34'0 0.0
2018-May-11 15:29N 36°36' E 030°34'0 0.0
2018-May-11 14:59N 36°36' E 030°34'0 0.0
2018-May-11 14:29N 36°36' E 030°34'0 0.0
2018-May-11 13:59N 36°36' E 030°34'0 0.0
2018-May-11 13:29N 36°36' E 030°34'1 2.1
2018-May-11 12:59N 36°36' E 030°36'2 4.6
2018-May-11 12:30N 36°34' E 030°35'2 1.5
2018-May-11 11:21N 36°32' E 030°34'0 0.0
2018-May-11 11:00N 36°32' E 030°34'0 0.1
2018-May-11 08:06N 36°32' E 030°34'1 7.2
2018-May-11 07:59N 36°33' E 030°34'3 6.7
2018-May-11 07:31N 36°36' E 030°36'1 2.0
2018-May-11 06:59N 36°36' E 030°34'0 0.0
2018-May-11 06:29N 36°36' E 030°34'0 0.0
2018-May-11 05:53N 36°36' E 030°34'0 0.0
2018-May-11 05:29N 36°36' E 030°34'0 0.0
2018-May-11 04:59N 36°36' E 030°34'0 0.0
2018-May-11 04:29N 36°36' E 030°34'  

Dump ship's entire track history